Time;durP1;ratioP1;P1;durP2;ratioP2;P2;SDS_P1;SDS_P2;PMS_P1;PMS_P2;Temp;Humidity;BMP_temperature;BMP_pressure;BME280_temperature;BME280_humidity;BME280_pressure;Samples;Min_cycle;Max_cycle;Signal;HPM_P1;HPM_P2
2022/04/11 00:00:32;;;;;;;3.38;1.85;;;9.80;99.90;;;;;;5013718;28;20377;-71
2022/04/11 00:02:58;;;;;;;10.40;2.60;;;9.70;99.90;;;;;;5009011;28;20037;-72
2022/04/11 00:05:24;;;;;;;9.10;2.92;;;9.60;99.90;;;;;;5016680;28;20048;-72
2022/04/11 00:07:49;;;;;;;6.15;2.63;;;9.60;99.90;;;;;;5015639;28;20411;-71
2022/04/11 00:10:16;;;;;;;2.67;1.90;;;9.60;99.90;;;;;;5011226;28;20025;-73
2022/04/11 00:12:42;;;;;;;6.63;2.20;;;9.50;99.90;;;;;;5011952;28;20037;-72
2022/04/11 00:15:08;;;;;;;3.60;2.55;;;9.40;99.90;;;;;;5010753;28;20084;-71
2022/04/11 00:17:35;;;;;;;6.20;2.80;;;9.30;99.90;;;;;;5012108;28;20140;-71
2022/04/11 00:20:01;;;;;;;6.97;2.65;;;9.30;99.90;;;;;;5010542;28;20029;-71
2022/04/11 00:22:27;;;;;;;8.80;2.55;;;9.20;99.90;;;;;;5009285;28;20034;-72
2022/04/11 00:24:53;;;;;;;5.32;2.25;;;9.10;99.90;;;;;;5009012;28;20705;-71
2022/04/11 00:27:19;;;;;;;3.85;3.42;;;9.00;99.90;;;;;;5007033;28;20068;-72
2022/04/11 00:29:45;;;;;;;2.30;2.03;;;8.90;99.90;;;;;;5009673;28;20048;-71
2022/04/11 00:32:10;;;;;;;5.95;2.70;;;8.80;99.90;;;;;;5011490;28;20541;-73
2022/04/11 00:34:36;;;;;;;4.50;3.08;;;8.80;99.90;;;;;;5011748;28;20034;-73
2022/04/11 00:37:02;;;;;;;3.65;2.28;;;8.70;99.90;;;;;;5010133;28;20083;-71
2022/04/11 00:39:28;;;;;;;4.88;2.67;;;8.80;99.90;;;;;;5010417;28;20042;-72
2022/04/11 00:41:53;;;;;;;4.57;2.90;;;8.80;99.90;;;;;;5013332;28;20029;-72
2022/04/11 00:44:19;;;;;;;5.10;2.30;;;9.00;99.90;;;;;;5012673;28;20119;-72
2022/04/11 00:46:45;;;;;;;4.60;2.75;;;9.00;99.90;;;;;;5013070;28;20034;-72
2022/04/11 00:49:10;;;;;;;3.42;2.20;;;9.00;99.90;;;;;;5008528;28;20030;-73
2022/04/11 00:51:37;;;;;;;5.25;2.38;;;9.00;99.90;;;;;;5008342;28;20049;-72
2022/04/11 00:54:04;;;;;;;6.50;2.78;;;9.00;99.90;;;;;;5008265;28;20022;-72
2022/04/11 00:56:30;;;;;;;3.53;2.47;;;8.80;99.90;;;;;;5010820;28;20029;-72
2022/04/11 00:59:00;;;;;;;3.80;2.50;;;8.80;99.90;;;;;;5010501;28;20165;-73
2022/04/11 01:01:25;;;;;;;6.53;2.72;;;8.70;99.90;;;;;;5003986;28;20518;-74
2022/04/11 01:03:51;;;;;;;8.25;2.40;;;8.60;99.90;;;;;;5007113;28;20054;-74
2022/04/11 01:06:17;;;;;;;4.75;2.20;;;8.60;99.90;;;;;;5012761;28;20022;-70
2022/04/11 01:08:43;;;;;;;3.40;2.17;;;8.60;99.90;;;;;;5011848;28;20110;-73
2022/04/11 01:11:09;;;;;;;2.20;1.83;;;8.60;99.90;;;;;;5009616;28;20645;-72
2022/04/11 01:13:35;;;;;;;2.47;2.08;;;8.50;99.90;;;;;;5010891;28;20029;-72
2022/04/11 01:16:05;;;;;;;3.70;3.03;;;8.50;99.90;;;;;;5010957;28;20556;-73
2022/04/11 01:18:35;;;;;;;2.92;2.22;;;8.40;99.90;;;;;;5005912;28;20088;-71
2022/04/11 01:21:02;;;;;;;3.47;2.15;;;8.60;99.90;;;;;;5009556;28;20493;-71
2022/04/11 01:23:28;;;;;;;2.85;1.90;;;8.60;99.90;;;;;;5010403;28;20113;-72
2022/04/11 01:25:54;;;;;;;3.67;2.25;;;8.50;99.90;;;;;;5010203;28;20117;-72
2022/04/11 01:28:21;;;;;;;3.22;2.20;;;8.30;99.90;;;;;;5010518;28;20038;-71
2022/04/11 01:30:51;;;;;;;6.32;3.00;;;8.30;99.90;;;;;;5007622;28;20041;-73
2022/04/11 01:33:19;;;;;;;5.57;2.75;;;8.10;99.90;;;;;;5010630;28;20481;-72
2022/04/11 01:35:46;;;;;;;3.38;2.55;;;8.10;99.90;;;;;;5011964;28;20426;-71
2022/04/11 01:38:12;;;;;;;5.25;3.38;;;8.20;99.90;;;;;;5011727;28;20014;-73
2022/04/11 01:40:37;;;;;;;2.63;2.17;;;8.20;99.90;;;;;;5007613;28;20068;-70
2022/04/11 01:43:03;;;;;;;3.75;2.25;;;8.30;99.90;;;;;;5012454;28;20049;-73
2022/04/11 01:45:29;;;;;;;2.55;2.22;;;8.20;99.90;;;;;;5008917;28;20095;-73
2022/04/11 01:47:55;;;;;;;5.40;2.90;;;8.20;99.90;;;;;;5008331;28;20030;-71
2022/04/11 01:50:21;;;;;;;4.60;2.53;;;8.20;99.90;;;;;;5008739;28;20036;-72
2022/04/11 01:52:47;;;;;;;5.70;2.65;;;8.30;99.90;;;;;;5009281;28;20116;-72
2022/04/11 01:55:12;;;;;;;4.95;2.15;;;8.20;99.90;;;;;;5009253;28;20029;-73
2022/04/11 01:57:38;;;;;;;3.67;2.17;;;8.20;99.90;;;;;;5008798;28;20127;-72
2022/04/11 02:00:04;;;;;;;4.53;2.53;;;8.20;99.90;;;;;;5008063;28;20057;-73
2022/04/11 02:02:30;;;;;;;2.78;2.50;;;8.20;99.90;;;;;;5009863;28;20553;-73
2022/04/11 02:04:56;;;;;;;7.88;1.95;;;8.20;99.90;;;;;;5009017;28;20129;-73
2022/04/11 02:07:21;;;;;;;3.95;2.70;;;8.10;99.90;;;;;;5012073;28;20068;-73
2022/04/11 02:09:47;;;;;;;2.70;1.98;;;8.10;99.90;;;;;;5010280;28;20413;-74
2022/04/11 02:12:13;;;;;;;6.05;2.92;;;7.90;99.90;;;;;;5006085;28;20038;-72
2022/04/11 02:14:38;;;;;;;6.68;2.15;;;8.00;99.90;;;;;;5010797;28;20043;-72
2022/04/11 02:17:04;;;;;;;7.88;2.55;;;7.90;99.90;;;;;;5011204;28;20029;-72
2022/04/11 02:19:30;;;;;;;3.08;2.15;;;7.90;99.90;;;;;;5008558;28;20025;-73
2022/04/11 02:21:55;;;;;;;4.63;1.95;;;7.90;99.90;;;;;;5011359;28;20030;-71
2022/04/11 02:24:21;;;;;;;5.07;2.47;;;7.90;99.90;;;;;;5008849;28;20045;-71
2022/04/11 02:26:47;;;;;;;3.80;1.80;;;7.90;99.90;;;;;;5004555;28;20628;-72
2022/04/11 02:29:12;;;;;;;4.20;2.35;;;7.90;99.90;;;;;;5009826;28;20486;-71
2022/04/11 02:31:38;;;;;;;6.60;2.85;;;7.90;99.90;;;;;;5006548;28;20049;-72
2022/04/11 02:34:04;;;;;;;5.60;2.40;;;7.80;99.90;;;;;;5009487;28;20034;-70
2022/04/11 02:36:29;;;;;;;3.75;2.10;;;7.80;99.90;;;;;;5010855;28;20130;-72
2022/04/11 02:38:55;;;;;;;2.13;1.80;;;7.70;99.90;;;;;;5008350;28;20117;-72
2022/04/11 02:41:21;;;;;;;5.30;2.33;;;7.70;99.90;;;;;;5007928;28;20387;-72
2022/04/11 02:43:47;;;;;;;2.97;2.60;;;7.70;99.90;;;;;;5009208;28;20105;-72
2022/04/11 02:46:12;;;;;;;5.80;3.65;;;7.60;99.90;;;;;;5009451;28;20406;-71
2022/04/11 02:48:38;;;;;;;3.55;2.20;;;7.70;99.90;;;;;;5007424;28;20021;-71
2022/04/11 02:51:04;;;;;;;3.47;2.17;;;7.70;99.90;;;;;;5005339;28;20040;-72
2022/04/11 02:53:29;;;;;;;3.13;2.30;;;7.60;99.90;;;;;;5005256;28;20069;-71
2022/04/11 02:55:55;;;;;;;2.42;2.22;;;7.60;99.90;;;;;;5008268;28;20041;-73
2022/04/11 02:58:21;;;;;;;2.60;2.00;;;7.60;99.90;;;;;;5009320;28;20042;-71
2022/04/11 03:00:47;;;;;;;5.10;2.15;;;7.50;99.90;;;;;;5007120;28;20026;-71
2022/04/11 03:03:13;;;;;;;5.25;2.85;;;7.50;99.90;;;;;;5008208;28;20030;-71
2022/04/11 03:05:38;;;;;;;2.50;2.10;;;7.40;99.90;;;;;;5008775;28;20501;-72
2022/04/11 03:08:04;;;;;;;5.07;2.40;;;7.50;99.90;;;;;;5005372;28;20022;-72
2022/04/11 03:10:30;;;;;;;5.45;2.63;;;7.50;99.90;;;;;;5005310;28;20084;-72
2022/04/11 03:12:56;;;;;;;6.05;2.70;;;7.50;99.90;;;;;;5010170;28;20414;-70
2022/04/11 03:15:22;;;;;;;3.72;2.15;;;7.50;99.90;;;;;;5010526;28;20500;-72
2022/04/11 03:17:48;;;;;;;4.05;2.40;;;7.50;99.90;;;;;;5007081;28;20458;-71
2022/04/11 03:20:13;;;;;;;7.22;2.65;;;7.40;99.90;;;;;;5009557;28;20489;-72
2022/04/11 03:22:39;;;;;;;3.90;3.08;;;7.40;99.90;;;;;;5009439;28;20479;-70
2022/04/11 03:25:05;;;;;;;3.17;2.17;;;7.30;99.90;;;;;;5014785;28;20088;-72
2022/04/11 03:27:31;;;;;;;3.97;2.65;;;7.30;99.90;;;;;;5016301;28;20486;-71
2022/04/11 03:29:57;;;;;;;3.72;2.30;;;7.30;99.90;;;;;;5015979;28;20049;-71
2022/04/11 03:32:23;;;;;;;3.95;2.42;;;7.40;99.90;;;;;;5011868;28;20360;-73
2022/04/11 03:34:51;;;;;;;3.30;2.25;;;7.40;99.90;;;;;;5013380;28;20041;-71
2022/04/11 03:37:17;;;;;;;1.75;1.65;;;7.40;99.90;;;;;;5015202;28;20037;-71
2022/04/11 03:39:43;;;;;;;3.30;2.08;;;7.40;99.90;;;;;;5016096;28;20100;-72
2022/04/11 03:42:09;;;;;;;4.20;2.65;;;7.40;99.90;;;;;;5014665;28;20268;-72
2022/04/11 03:44:37;;;;;;;4.00;2.05;;;7.40;99.90;;;;;;5013780;28;20340;-72
2022/04/11 03:47:03;;;;;;;4.60;2.40;;;7.40;99.90;;;;;;5015169;28;20025;-71
2022/04/11 03:49:29;;;;;;;2.78;2.17;;;7.30;99.90;;;;;;5014957;28;20116;-71
2022/04/11 03:51:55;;;;;;;3.45;2.70;;;7.30;99.90;;;;;;5014301;28;20617;-72
2022/04/11 03:54:21;;;;;;;6.03;1.90;;;7.30;99.90;;;;;;5013758;28;20128;-72
2022/04/11 03:56:46;;;;;;;2.90;1.90;;;7.30;99.90;;;;;;5016246;28;20030;-73
2022/04/11 03:59:12;;;;;;;3.70;2.17;;;7.30;99.90;;;;;;5011988;28;20033;-71
2022/04/11 04:01:38;;;;;;;3.05;2.25;;;7.30;99.90;;;;;;5011820;28;20052;-71
2022/04/11 04:04:04;;;;;;;3.45;2.03;;;7.30;99.90;;;;;;5009964;28;20120;-71
2022/04/11 04:06:30;;;;;;;3.78;2.30;;;7.30;99.90;;;;;;5016724;28;20121;-72
2022/04/11 04:08:55;;;;;;;2.88;1.70;;;7.30;99.90;;;;;;5015332;28;20022;-73
2022/04/11 04:11:21;;;;;;;3.72;2.13;;;7.30;99.90;;;;;;5014323;28;20053;-73
2022/04/11 04:13:47;;;;;;;2.80;1.58;;;7.40;99.90;;;;;;5008272;28;20102;-75
2022/04/11 04:16:13;;;;;;;1.85;1.65;;;7.40;99.90;;;;;;5011966;28;20109;-71
2022/04/11 04:18:39;;;;;;;6.95;2.00;;;7.30;99.90;;;;;;5016201;28;20022;-71
2022/04/11 04:21:04;;;;;;;4.78;2.67;;;7.30;99.90;;;;;;5015454;28;20048;-72
2022/04/11 04:23:30;;;;;;;6.07;3.03;;;7.40;99.90;;;;;;5015072;28;20048;-72
2022/04/11 04:25:57;;;;;;;4.72;2.72;;;7.30;99.90;;;;;;5013956;28;20026;-73
2022/04/11 04:28:23;;;;;;;5.82;2.47;;;7.40;99.90;;;;;;5014423;28;20091;-72
2022/04/11 04:30:48;;;;;;;3.30;1.98;;;7.30;99.90;;;;;;5011009;28;20470;-72
2022/04/11 04:33:14;;;;;;;4.78;2.25;;;7.30;99.90;;;;;;5012608;28;20026;-72
2022/04/11 04:35:40;;;;;;;3.92;2.25;;;7.30;99.90;;;;;;5011231;28;20021;-72
2022/04/11 04:38:06;;;;;;;4.07;2.22;;;7.30;99.90;;;;;;5011760;28;20033;-72
2022/04/11 04:40:32;;;;;;;2.20;1.83;;;7.40;99.90;;;;;;5011717;28;20021;-72
2022/04/11 04:42:57;;;;;;;8.60;2.80;;;7.30;99.90;;;;;;5009955;28;20033;-71
2022/04/11 04:45:23;;;;;;;3.65;1.75;;;7.30;99.90;;;;;;5010767;28;20022;-72
2022/04/11 04:47:49;;;;;;;3.53;2.33;;;7.30;99.90;;;;;;5011113;28;20109;-70
2022/04/11 04:50:15;;;;;;;10.35;2.67;;;7.30;99.90;;;;;;5011278;28;20026;-72
2022/04/11 04:52:41;;;;;;;7.03;2.70;;;7.30;99.90;;;;;;5008502;28;20079;-71
2022/04/11 04:55:07;;;;;;;7.80;2.13;;;7.40;99.90;;;;;;5011899;28;20030;-71
2022/04/11 04:57:34;;;;;;;4.82;1.98;;;7.30;99.90;;;;;;5010013;28;20060;-73
2022/04/11 05:00:00;;;;;;;5.88;2.45;;;7.30;99.90;;;;;;5011224;28;20080;-73
2022/04/11 05:02:25;;;;;;;6.47;2.60;;;7.20;99.90;;;;;;5012203;28;20072;-72
2022/04/11 05:04:51;;;;;;;4.45;2.08;;;7.30;99.90;;;;;;5010054;28;20029;-71
2022/04/11 05:07:17;;;;;;;4.68;2.40;;;7.30;99.90;;;;;;5009855;28;20030;-72
2022/04/11 05:09:43;;;;;;;13.80;3.70;;;7.40;99.90;;;;;;5011301;28;20018;-71
2022/04/11 05:12:08;;;;;;;4.32;2.97;;;7.50;99.90;;;;;;5011072;28;20052;-74
2022/04/11 05:14:34;;;;;;;9.65;3.17;;;7.50;99.90;;;;;;5013191;28;20030;-71
2022/04/11 05:17:00;;;;;;;4.90;2.65;;;7.50;99.90;;;;;;5009743;28;20176;-72
2022/04/11 05:19:26;;;;;;;11.48;2.17;;;7.60;99.90;;;;;;5007012;28;20030;-71
2022/04/11 05:21:51;;;;;;;11.38;3.30;;;7.60;99.90;;;;;;5012515;28;20172;-73
2022/04/11 05:24:17;;;;;;;13.57;2.40;;;7.70;99.90;;;;;;5009350;28;20037;-72
2022/04/11 05:26:43;;;;;;;4.95;2.63;;;7.80;99.90;;;;;;5009016;28;20030;-75
2022/04/11 05:29:09;;;;;;;4.00;2.47;;;8.00;99.90;;;;;;5010398;28;20077;-73
2022/04/11 05:31:35;;;;;;;4.10;3.00;;;7.90;99.90;;;;;;5007446;28;20486;-72
2022/04/11 05:34:01;;;;;;;7.15;3.25;;;7.90;99.90;;;;;;5010231;28;20033;-72
2022/04/11 05:36:27;;;;;;;5.85;2.30;;;7.90;99.90;;;;;;5012182;28;20062;-71
2022/04/11 05:38:53;;;;;;;5.20;2.55;;;8.00;99.90;;;;;;5008133;28;20064;-71
2022/04/11 05:41:21;;;;;;;5.35;3.33;;;8.10;99.90;;;;;;5010781;28;20042;-71
2022/04/11 05:43:47;;;;;;;5.68;4.40;;;8.20;99.90;;;;;;5011049;28;20394;-71
2022/04/11 05:46:13;;;;;;;5.75;3.25;;;8.30;99.90;;;;;;5012128;28;20129;-72
2022/04/11 05:48:40;;;;;;;13.90;3.45;;;8.40;99.90;;;;;;5011697;28;20018;-72
2022/04/11 05:51:06;;;;;;;5.53;3.25;;;8.50;99.90;;;;;;5012019;28;20501;-74
2022/04/11 05:53:32;;;;;;;6.43;2.42;;;8.60;99.90;;;;;;5010762;28;20049;-73
2022/04/11 05:55:58;;;;;;;6.85;2.90;;;8.80;99.90;;;;;;5006444;28;20124;-73
2022/04/11 05:58:23;;;;;;;7.85;2.97;;;8.90;99.90;;;;;;5013005;28;20033;-73
2022/04/11 06:00:49;;;;;;;3.95;2.47;;;9.00;99.90;;;;;;5011827;28;20026;-72
2022/04/11 06:03:15;;;;;;;9.80;3.05;;;9.10;99.90;;;;;;5012015;28;20029;-72
2022/04/11 06:05:40;;;;;;;6.07;3.65;;;9.20;99.90;;;;;;5010492;28;20033;-71
2022/04/11 06:08:06;;;;;;;7.57;3.35;;;9.30;99.90;;;;;;5008405;28;20022;-72
2022/04/11 06:10:33;;;;;;;15.70;7.53;;;9.30;99.90;;;;;;5007336;28;20022;-73
2022/04/11 06:12:58;;;;;;;6.40;2.67;;;9.40;99.90;;;;;;5012995;28;20029;-72
2022/04/11 06:15:24;;;;;;;11.82;2.80;;;9.50;99.90;;;;;;5011956;28;20064;-72
2022/04/11 06:17:50;;;;;;;4.30;2.33;;;9.60;99.90;;;;;;5012549;28;20045;-73
2022/04/11 06:20:16;;;;;;;3.78;2.10;;;9.80;99.90;;;;;;5010733;28;20049;-71
2022/04/11 06:22:42;;;;;;;6.15;2.35;;;10.10;99.90;;;;;;5011078;28;20041;-74
2022/04/11 06:25:08;;;;;;;7.15;2.03;;;10.10;99.90;;;;;;5009484;28;20036;-72
2022/04/11 06:27:36;;;;;;;11.20;2.95;;;10.20;99.90;;;;;;5009538;28;20029;-73
2022/04/11 06:30:02;;;;;;;9.88;3.38;;;10.30;99.90;;;;;;5008688;28;20100;-73
2022/04/11 06:32:29;;;;;;;5.03;2.38;;;10.40;99.90;;;;;;5008027;28;20072;-72
2022/04/11 06:34:55;;;;;;;9.63;2.65;;;10.40;99.90;;;;;;5007782;28;20446;-71
2022/04/11 06:37:23;;;;;;;7.93;2.22;;;10.50;99.90;;;;;;5006470;28;20062;-72
2022/04/11 06:39:48;;;;;;;2.35;1.55;;;10.60;99.90;;;;;;5005466;28;20040;-71
2022/04/11 06:42:14;;;;;;;8.20;2.20;;;10.70;99.90;;;;;;5008846;28;20078;-72
2022/04/11 06:44:40;;;;;;;8.00;2.58;;;10.80;99.90;;;;;;5010910;28;20068;-71
2022/04/11 06:47:08;;;;;;;2.78;1.90;;;10.90;99.90;;;;;;5009199;28;20557;-71
2022/04/11 06:49:37;;;;;;;7.32;2.15;;;11.10;99.90;;;;;;5009541;28;20030;-71
2022/04/11 06:52:04;;;;;;;3.17;1.67;;;11.30;99.90;;;;;;5006900;28;20026;-72
2022/04/11 06:54:30;;;;;;;6.80;2.00;;;11.40;99.90;;;;;;5010536;28;20034;-70
2022/04/11 06:56:56;;;;;;;2.28;2.00;;;11.50;99.90;;;;;;5007649;28;20051;-73
2022/04/11 06:59:22;;;;;;;4.10;2.00;;;11.60;99.90;;;;;;5008275;28;20453;-72
2022/04/11 07:01:48;;;;;;;9.18;3.13;;;11.60;99.90;;;;;;5008648;28;20036;-73
2022/04/11 07:04:14;;;;;;;3.65;2.25;;;11.60;99.90;;;;;;5006756;28;20028;-71
2022/04/11 07:06:40;;;;;;;4.85;2.20;;;11.90;99.90;;;;;;5010490;28;20028;-71
2022/04/11 07:09:05;;;;;;;5.40;2.30;;;11.90;99.90;;;;;;5007152;28;20033;-72
2022/04/11 07:11:31;;;;;;;1.98;1.52;;;12.00;99.90;;;;;;5008301;28;20106;-72
2022/04/11 07:13:57;;;;;;;12.90;3.25;;;12.10;99.90;;;;;;5010013;28;20033;-72
2022/04/11 07:16:24;;;;;;;3.75;1.58;;;12.20;99.90;;;;;;5007473;28;20037;-72
2022/04/11 07:18:51;;;;;;;3.38;2.47;;;12.20;99.90;;;;;;5009045;28;20037;-72
2022/04/11 07:21:17;;;;;;;6.75;2.30;;;12.30;99.90;;;;;;5008443;28;20195;-71
2022/04/11 07:23:43;;;;;;;13.13;2.85;;;12.40;99.90;;;;;;4999659;28;20025;-73
2022/04/11 07:26:09;;;;;;;4.53;2.20;;;12.60;99.90;;;;;;5002602;28;20034;-72
2022/04/11 07:28:35;;;;;;;1.42;1.30;;;12.80;99.90;;;;;;5006602;28;20026;-72
2022/04/11 07:31:01;;;;;;;11.88;2.72;;;12.90;99.90;;;;;;5009220;28;20037;-71
2022/04/11 07:33:26;;;;;;;12.27;2.47;;;13.10;99.90;;;;;;5002416;28;20036;-73
2022/04/11 07:35:52;;;;;;;4.43;1.73;;;13.30;99.90;;;;;;5010360;28;20026;-72
2022/04/11 07:38:19;;;;;;;2.13;1.48;;;13.40;99.90;;;;;;5009344;28;20028;-72
2022/04/11 07:40:45;;;;;;;2.03;1.30;;;13.30;99.90;;;;;;5009648;28;20029;-72
2022/04/11 07:43:10;;;;;;;3.75;1.52;;;13.30;99.90;;;;;;5011532;28;20022;-70
2022/04/11 07:45:36;;;;;;;3.65;1.10;;;13.60;99.90;;;;;;5023585;28;20024;-70
2022/04/11 07:48:02;;;;;;;1.35;1.17;;;13.40;99.90;;;;;;5014199;28;20029;-72
2022/04/11 07:50:28;;;;;;;7.85;1.83;;;13.40;99.90;;;;;;5015007;28;20014;-71
2022/04/11 07:52:54;;;;;;;4.22;1.42;;;13.50;99.90;;;;;;5009628;28;20030;-72
2022/04/11 07:55:20;;;;;;;5.70;1.17;;;13.60;99.90;;;;;;5008809;28;20034;-71
2022/04/11 07:57:53;;;;;;;2.15;1.10;;;13.60;99.90;;;;;;5008390;28;20478;-72
2022/04/11 08:00:20;;;;;;;10.75;1.23;;;13.50;99.90;;;;;;5009469;28;20072;-71
2022/04/11 08:02:53;;;;;;;1.42;1.30;;;13.50;99.90;;;;;;5024841;28;20120;-71
2022/04/11 08:05:19;;;;;;;1.88;1.50;;;13.40;99.90;;;;;;5028380;28;20022;-71
2022/04/11 08:07:46;;;;;;;5.38;1.27;;;13.40;99.90;;;;;;5008605;28;20042;-70
2022/04/11 08:10:13;;;;;;;3.05;1.50;;;13.40;99.90;;;;;;5009684;28;20030;-70
2022/04/11 08:12:40;;;;;;;1.88;1.50;;;13.30;99.90;;;;;;5009899;28;20029;-71
2022/04/11 08:15:07;;;;;;;4.55;1.42;;;13.30;99.90;;;;;;5010324;28;20052;-70
2022/04/11 08:17:32;;;;;;;2.80;1.40;;;13.30;99.90;;;;;;5011967;28;20029;-70
2022/04/11 08:19:58;;;;;;;4.63;1.98;;;13.50;99.90;;;;;;5012356;28;20398;-70
2022/04/11 08:22:24;;;;;;;1.75;0.95;;;13.60;99.90;;;;;;5012912;28;20112;-71
2022/04/11 08:24:49;;;;;;;3.90;1.00;;;13.70;99.90;;;;;;5012897;28;20107;-71
2022/04/11 08:27:15;;;;;;;1.20;1.10;;;13.70;99.90;;;;;;5013535;28;20088;-71
2022/04/11 08:29:41;;;;;;;1.35;0.90;;;13.70;99.90;;;;;;5012101;28;20030;-69
2022/04/11 08:32:07;;;;;;;1.27;0.85;;;13.90;99.90;;;;;;5011522;28;20029;-69
2022/04/11 08:34:33;;;;;;;0.93;0.93;;;14.10;99.90;;;;;;5013256;28;20417;-70
2022/04/11 08:36:59;;;;;;;1.83;0.90;;;14.10;99.90;;;;;;5011092;28;20109;-72
2022/04/11 08:39:25;;;;;;;4.10;1.17;;;14.10;99.90;;;;;;5010961;28;20025;-70
2022/04/11 08:41:52;;;;;;;6.63;1.30;;;14.00;99.90;;;;;;5011866;28;20121;-71
2022/04/11 08:44:19;;;;;;;1.65;1.10;;;14.00;99.90;;;;;;5013297;28;20026;-71
2022/04/11 08:46:45;;;;;;;1.52;1.10;;;13.90;99.90;;;;;;5013374;28;20022;-71
2022/04/11 08:49:11;;;;;;;2.17;1.40;;;13.90;99.90;;;;;;5012269;28;20528;-71
2022/04/11 08:51:37;;;;;;;4.13;1.45;;;14.00;99.90;;;;;;5013935;28;20105;-71
2022/04/11 08:54:05;;;;;;;3.20;1.60;;;13.90;99.90;;;;;;5011459;28;20037;-70
2022/04/11 08:56:32;;;;;;;3.67;1.23;;;13.90;99.90;;;;;;5011616;28;20029;-71
2022/04/11 08:58:58;;;;;;;1.73;1.13;;;13.70;99.90;;;;;;5009435;28;20051;-70
2022/04/11 09:01:25;;;;;;;2.33;1.23;;;13.60;99.90;;;;;;5012628;28;20065;-71
2022/04/11 09:03:51;;;;;;;7.10;1.30;;;13.60;99.90;;;;;;5012763;28;20037;-69
2022/04/11 09:06:18;;;;;;;2.17;1.02;;;13.60;99.90;;;;;;5012247;28;20022;-70
2022/04/11 09:08:56;;;;;;;3.90;1.40;;;13.60;99.90;;;;;;5011805;28;20029;-71
2022/04/11 09:11:36;;;;;;;5.35;1.33;;;13.80;99.90;;;;;;5011419;28;20112;-69
2022/04/11 09:14:04;;;;;;;2.28;1.50;;;13.80;99.90;;;;;;5012371;28;20136;-73
2022/04/11 09:16:51;;;;;;;2.55;1.10;;;13.90;99.90;;;;;;5014313;28;20329;-69
2022/04/11 09:19:22;;;;;;;1.30;1.20;;;14.00;99.90;;;;;;5013494;28;20030;-70
2022/04/11 09:21:50;;;;;;;2.22;1.35;;;14.10;99.90;;;;;;5009761;28;20428;-71
2022/04/11 09:24:19;;;;;;;2.85;1.90;;;14.10;99.90;;;;;;5012481;28;20093;-71
2022/04/11 09:26:45;;;;;;;5.82;2.03;;;14.10;99.90;;;;;;5011825;28;20034;-70
2022/04/11 09:29:12;;;;;;;3.10;1.10;;;14.20;99.90;;;;;;5007420;28;20156;-70
2022/04/11 09:31:38;;;;;;;7.07;1.13;;;14.10;99.90;;;;;;5011520;28;20111;-72
2022/04/11 09:34:21;;;;;;;2.47;1.13;;;14.10;99.90;;;;;;5012196;28;20032;-70
2022/04/11 09:36:58;;;;;;;3.63;1.20;;;14.20;99.90;;;;;;5004853;28;20108;-70
2022/04/11 09:39:32;;;;;;;1.90;1.27;;;14.00;99.90;;;;;;5011441;28;20033;-70
2022/04/11 09:41:58;;;;;;;5.03;1.50;;;13.90;99.90;;;;;;5007939;28;20224;-70
2022/04/11 09:44:32;;;;;;;4.97;1.30;;;13.80;99.90;;;;;;5006982;28;20030;-69
2022/04/11 09:47:04;;;;;;;5.38;1.23;;;13.70;99.90;;;;;;5008596;28;20037;-69
2022/04/11 09:49:31;;;;;;;3.17;1.75;;;13.60;99.90;;;;;;5008313;28;20026;-69
2022/04/11 09:52:12;;;;;;;5.10;1.45;;;13.70;99.90;;;;;;5012144;28;20409;-70
2022/04/11 09:54:43;;;;;;;2.97;1.30;;;13.60;99.90;;;;;;5012142;28;20026;-70
2022/04/11 09:57:10;;;;;;;6.15;1.65;;;13.50;99.90;;;;;;5009955;28;20387;-70
2022/04/11 09:59:37;;;;;;;2.90;1.20;;;13.50;99.90;;;;;;5010157;28;20421;-70
2022/04/11 10:02:03;;;;;;;5.63;1.73;;;13.30;99.90;;;;;;5011241;28;20030;-70
2022/04/11 10:04:29;;;;;;;1.30;0.95;;;13.40;99.90;;;;;;5009277;28;20242;-70
2022/04/11 10:06:56;;;;;;;2.08;0.75;;;13.50;99.90;;;;;;5010610;28;20112;-70
2022/04/11 10:09:23;;;;;;;4.68;1.17;;;13.60;99.90;;;;;;5009833;28;20045;-70
2022/04/11 10:11:52;;;;;;;1.92;0.60;;;13.70;99.90;;;;;;5009413;28;20026;-71
2022/04/11 10:14:27;;;;;;;4.32;1.33;;;13.60;99.90;;;;;;5010691;28;20079;-70
2022/04/11 10:17:00;;;;;;;2.00;1.30;;;13.60;99.90;;;;;;5007823;28;20342;-69
2022/04/11 10:19:31;;;;;;;4.07;2.47;;;13.70;99.90;;;;;;5007311;28;20430;-70
2022/04/11 10:22:06;;;;;;;3.70;1.30;;;13.70;99.90;;;;;;5011371;28;20402;-71
2022/04/11 10:24:52;;;;;;;4.18;1.30;;;13.70;99.90;;;;;;5009510;28;20455;-71
2022/04/11 10:27:22;;;;;;;4.72;1.25;;;13.70;99.90;;;;;;5010342;28;20026;-70
2022/04/11 10:29:50;;;;;;;1.33;1.02;;;13.80;99.90;;;;;;5012204;28;20474;-70
2022/04/11 10:32:16;;;;;;;3.17;1.73;;;13.70;99.90;;;;;;5012701;28;20025;-70
2022/04/11 10:35:00;;;;;;;1.40;1.00;;;13.60;99.90;;;;;;5010225;28;20030;-70
2022/04/11 10:37:29;;;;;;;3.72;1.38;;;13.50;99.90;;;;;;5004688;28;20022;-70
2022/04/11 10:40:17;;;;;;;5.20;1.38;;;13.60;99.90;;;;;;5006437;28;20057;-70
2022/04/11 10:43:01;;;;;;;1.20;1.10;;;13.60;99.90;;;;;;5008213;28;20081;-71
2022/04/11 10:45:38;;;;;;;2.22;1.15;;;13.70;99.90;;;;;;5005104;28;20026;-70
2022/04/11 10:48:05;;;;;;;3.10;1.85;;;13.80;99.90;;;;;;5007245;28;20494;-70
2022/04/11 10:50:34;;;;;;;2.15;1.95;;;13.70;99.90;;;;;;5010825;28;20034;-70
2022/04/11 10:53:15;;;;;;;3.05;1.60;;;13.60;99.90;;;;;;5010038;28;20124;-71
2022/04/11 10:56:00;;;;;;;1.83;1.52;;;13.60;99.90;;;;;;5010828;28;20200;-69
2022/04/11 10:59:02;;;;;;;3.05;1.42;;;13.80;99.90;;;;;;5011404;28;20026;-71
2022/04/11 11:01:49;;;;;;;1.75;1.40;;;13.90;99.90;;;;;;5006982;28;20041;-71
2022/04/11 11:04:18;;;;;;;2.65;1.02;;;13.90;99.90;;;;;;5009347;28;20030;-70
2022/04/11 11:06:44;;;;;;;5.28;1.55;;;13.90;99.90;;;;;;5011124;28;20018;-72
2022/04/11 11:09:18;;;;;;;1.88;1.25;;;13.80;99.90;;;;;;5009172;28;20402;-68
2022/04/11 11:11:45;;;;;;;2.28;1.42;;;13.90;99.90;;;;;;5011846;28;20026;-70
2022/04/11 11:14:40;;;;;;;2.17;1.88;;;13.80;99.90;;;;;;5009639;28;20577;-72
2022/04/11 11:17:07;;;;;;;12.00;1.73;;;13.80;99.90;;;;;;5009767;28;20037;-71
2022/04/11 11:20:04;;;;;;;1.13;0.73;;;13.70;99.90;;;;;;5008901;28;20041;-70
2022/04/11 11:22:54;;;;;;;4.63;1.33;;;13.90;99.90;;;;;;5006878;28;20116;-70
2022/04/11 11:25:20;;;;;;;2.33;1.20;;;13.80;99.90;;;;;;5007398;28;20482;-71
2022/04/11 11:27:47;;;;;;;1.35;0.98;;;14.10;99.90;;;;;;5009164;28;20060;-71
2022/04/11 11:30:14;;;;;;;4.07;1.35;;;14.00;99.90;;;;;;5010351;28;20098;-71
2022/04/11 11:32:41;;;;;;;1.17;0.70;;;13.90;99.90;;;;;;5009325;28;20030;-72
2022/04/11 11:35:11;;;;;;;2.63;1.25;;;13.80;99.90;;;;;;5012104;28;20030;-70
2022/04/11 11:37:37;;;;;;;2.95;1.23;;;13.70;99.90;;;;;;5010948;28;20033;-72
2022/04/11 11:40:04;;;;;;;1.15;0.80;;;13.70;99.90;;;;;;5010536;28;20029;-70
2022/04/11 11:42:37;;;;;;;1.45;0.93;;;13.60;99.90;;;;;;5010669;28;20092;-70
2022/04/11 11:45:05;;;;;;;1.48;0.90;;;13.70;99.90;;;;;;5009111;28;20025;-72
2022/04/11 11:47:31;;;;;;;1.67;0.68;;;13.70;99.90;;;;;;5011210;28;20040;-71
2022/04/11 11:50:03;;;;;;;1.60;1.02;;;13.70;99.90;;;;;;5010835;28;20125;-70
2022/04/11 11:52:28;;;;;;;3.25;0.95;;;13.80;99.90;;;;;;5013361;28;20036;-70
2022/04/11 11:54:54;;;;;;;3.55;2.15;;;13.70;99.90;;;;;;5015117;28;20026;-72
2022/04/11 11:57:30;;;;;;;1.52;0.98;;;13.60;99.90;;;;;;5014229;28;20308;-71
2022/04/11 12:00:04;;;;;;;1.52;0.98;;;13.60;99.90;;;;;;5011343;28;20057;-71
2022/04/11 12:05:20;;;;;;;3.58;1.30;;;13.60;99.90;;;;;;5011971;28;20033;-71
2022/04/11 12:07:48;;;;;;;3.95;1.20;;;13.40;99.90;;;;;;5010454;28;20354;-72
2022/04/11 12:10:15;;;;;;;4.35;1.17;;;13.50;99.90;;;;;;5010498;28;20036;-72
2022/04/11 12:12:43;;;;;;;1.20;1.08;;;13.60;99.90;;;;;;5013438;28;20026;-72
2022/04/11 12:15:09;;;;;;;2.15;1.10;;;13.50;99.90;;;;;;5012510;28;20046;-71
2022/04/11 12:17:40;;;;;;;1.40;1.00;;;13.40;99.90;;;;;;5012794;28;20071;-72
2022/04/11 12:20:15;;;;;;;5.38;1.60;;;13.50;99.90;;;;;;5007022;28;20022;-73
2022/04/11 12:23:02;;;;;;;3.00;1.42;;;13.60;99.90;;;;;;5010230;28;20053;-71
2022/04/11 12:25:44;;;;;;;5.28;1.13;;;13.60;99.90;;;;;;5008290;28;20113;-71
2022/04/11 12:28:22;;;;;;;1.65;1.10;;;13.70;99.90;;;;;;4999073;28;20045;-71
2022/04/11 12:31:02;;;;;;;4.50;1.40;;;13.70;99.90;;;;;;5009399;28;20026;-73
2022/04/11 12:33:37;;;;;;;2.10;1.20;;;13.80;99.90;;;;;;5013155;28;20461;-71
2022/04/11 12:36:22;;;;;;;3.40;1.17;;;13.80;99.90;;;;;;5007541;28;20117;-70
2022/04/11 12:38:57;;;;;;;2.05;0.82;;;13.80;99.90;;;;;;5012935;28;20478;-71
2022/04/11 12:41:34;;;;;;;1.73;1.30;;;13.70;99.90;;;;;;5014806;28;20030;-71
2022/04/11 12:44:07;;;;;;;4.63;2.60;;;13.80;99.90;;;;;;5005445;28;20612;-71
2022/04/11 12:46:41;;;;;;;9.52;1.52;;;13.90;99.90;;;;;;5008996;28;20116;-72
2022/04/11 12:49:08;;;;;;;1.85;1.08;;;14.00;99.90;;;;;;5010271;28;20086;-72
2022/04/11 12:51:35;;;;;;;8.88;2.35;;;14.00;99.90;;;;;;5013837;28;20025;-71
2022/04/11 12:54:05;;;;;;;2.80;1.30;;;14.00;99.90;;;;;;5012148;28;20045;-71
2022/04/11 12:56:41;;;;;;;2.53;1.02;;;14.10;99.90;;;;;;5010054;28;20037;-72